sensor_id;sensor_type;location;lat;lon;timestamp;P1;durP1;ratioP1;P2;durP2;ratioP2
39098;SDS011;24844;52.380;7.018;2022-09-01T00:00:44;2.25;;;1.35;;
39098;SDS011;24844;52.380;7.018;2022-09-01T00:03:16;5.18;;;1.60;;
39098;SDS011;24844;52.380;7.018;2022-09-01T00:05:44;5.88;;;1.55;;
39098;SDS011;24844;52.380;7.018;2022-09-01T00:08:14;2.33;;;1.40;;
39098;SDS011;24844;52.380;7.018;2022-09-01T00:10:40;2.80;;;1.42;;
39098;SDS011;24844;52.380;7.018;2022-09-01T00:13:06;3.67;;;1.70;;
39098;SDS011;24844;52.380;7.018;2022-09-01T00:15:32;6.45;;;1.60;;
39098;SDS011;24844;52.380;7.018;2022-09-01T00:17:59;2.63;;;1.67;;
39098;SDS011;24844;52.380;7.018;2022-09-01T00:20:26;3.15;;;1.35;;
39098;SDS011;24844;52.380;7.018;2022-09-01T00:22:52;2.88;;;1.55;;
39098;SDS011;24844;52.380;7.018;2022-09-01T00:25:18;2.03;;;1.40;;
39098;SDS011;24844;52.380;7.018;2022-09-01T00:27:44;3.03;;;1.40;;
39098;SDS011;24844;52.380;7.018;2022-09-01T00:30:10;4.07;;;1.60;;
39098;SDS011;24844;52.380;7.018;2022-09-01T00:32:36;3.80;;;1.42;;
39098;SDS011;24844;52.380;7.018;2022-09-01T00:35:02;6.43;;;1.40;;
39098;SDS011;24844;52.380;7.018;2022-09-01T00:37:28;1.80;;;1.40;;
39098;SDS011;24844;52.380;7.018;2022-09-01T00:39:54;2.15;;;1.23;;
39098;SDS011;24844;52.380;7.018;2022-09-01T00:42:20;4.45;;;1.63;;
39098;SDS011;24844;52.380;7.018;2022-09-01T00:44:45;1.98;;;1.25;;
39098;SDS011;24844;52.380;7.018;2022-09-01T00:47:11;3.00;;;1.92;;
39098;SDS011;24844;52.380;7.018;2022-09-01T00:49:38;3.05;;;1.30;;
39098;SDS011;24844;52.380;7.018;2022-09-01T00:52:11;4.60;;;1.63;;
39098;SDS011;24844;52.380;7.018;2022-09-01T00:54:55;4.13;;;1.80;;
39098;SDS011;24844;52.380;7.018;2022-09-01T00:57:23;1.58;;;1.40;;
39098;SDS011;24844;52.380;7.018;2022-09-01T00:59:58;4.18;;;1.80;;
39098;SDS011;24844;52.380;7.018;2022-09-01T01:02:32;1.90;;;1.70;;
39098;SDS011;24844;52.380;7.018;2022-09-01T01:04:57;2.70;;;1.67;;
39098;SDS011;24844;52.380;7.018;2022-09-01T01:07:24;5.13;;;1.60;;
39098;SDS011;24844;52.380;7.018;2022-09-01T01:09:51;2.85;;;1.60;;
39098;SDS011;24844;52.380;7.018;2022-09-01T01:12:18;2.35;;;1.60;;
39098;SDS011;24844;52.380;7.018;2022-09-01T01:14:45;3.03;;;1.75;;
39098;SDS011;24844;52.380;7.018;2022-09-01T01:17:14;4.53;;;1.98;;
39098;SDS011;24844;52.380;7.018;2022-09-01T01:19:49;3.00;;;1.90;;
39098;SDS011;24844;52.380;7.018;2022-09-01T01:25:38;3.17;;;1.60;;
39098;SDS011;24844;52.380;7.018;2022-09-01T01:30:41;5.50;;;1.50;;
39098;SDS011;24844;52.380;7.018;2022-09-01T01:33:09;1.98;;;1.58;;
39098;SDS011;24844;52.380;7.018;2022-09-01T01:35:35;3.78;;;1.95;;
39098;SDS011;24844;52.380;7.018;2022-09-01T01:38:01;3.53;;;1.52;;
39098;SDS011;24844;52.380;7.018;2022-09-01T01:40:31;2.70;;;1.45;;
39098;SDS011;24844;52.380;7.018;2022-09-01T01:42:58;4.97;;;1.50;;
39098;SDS011;24844;52.380;7.018;2022-09-01T01:45:25;2.80;;;1.23;;
39098;SDS011;24844;52.380;7.018;2022-09-01T01:47:52;3.08;;;1.40;;
39098;SDS011;24844;52.380;7.018;2022-09-01T01:50:19;1.67;;;1.30;;
39098;SDS011;24844;52.380;7.018;2022-09-01T01:52:46;4.13;;;1.38;;
39098;SDS011;24844;52.380;7.018;2022-09-01T01:55:12;2.53;;;1.42;;
39098;SDS011;24844;52.380;7.018;2022-09-01T01:57:40;2.30;;;1.45;;
39098;SDS011;24844;52.380;7.018;2022-09-01T02:00:13;2.83;;;1.35;;
39098;SDS011;24844;52.380;7.018;2022-09-01T02:02:45;4.18;;;1.60;;
39098;SDS011;24844;52.380;7.018;2022-09-01T02:05:28;4.60;;;1.20;;
39098;SDS011;24844;52.380;7.018;2022-09-01T02:07:57;2.90;;;1.40;;
39098;SDS011;24844;52.380;7.018;2022-09-01T02:10:29;1.40;;;1.20;;
39098;SDS011;24844;52.380;7.018;2022-09-01T02:12:57;2.28;;;1.25;;
39098;SDS011;24844;52.380;7.018;2022-09-01T02:15:39;5.28;;;1.55;;
39098;SDS011;24844;52.380;7.018;2022-09-01T02:18:13;3.60;;;1.38;;
39098;SDS011;24844;52.380;7.018;2022-09-01T02:20:45;2.25;;;1.42;;
39098;SDS011;24844;52.380;7.018;2022-09-01T02:23:13;1.35;;;1.10;;
39098;SDS011;24844;52.380;7.018;2022-09-01T02:28:12;3.38;;;1.27;;
39098;SDS011;24844;52.380;7.018;2022-09-01T02:30:45;2.97;;;1.30;;
39098;SDS011;24844;52.380;7.018;2022-09-01T02:33:17;5.25;;;1.63;;
39098;SDS011;24844;52.380;7.018;2022-09-01T02:35:46;1.58;;;1.27;;
39098;SDS011;24844;52.380;7.018;2022-09-01T02:38:17;3.03;;;1.40;;
39098;SDS011;24844;52.380;7.018;2022-09-01T02:40:44;2.47;;;1.25;;
39098;SDS011;24844;52.380;7.018;2022-09-01T02:43:11;1.25;;;1.15;;
39098;SDS011;24844;52.380;7.018;2022-09-01T02:45:40;1.98;;;1.30;;
39098;SDS011;24844;52.380;7.018;2022-09-01T02:48:07;3.90;;;1.23;;
39098;SDS011;24844;52.380;7.018;2022-09-01T02:50:34;4.82;;;1.20;;
39098;SDS011;24844;52.380;7.018;2022-09-01T02:53:01;2.72;;;1.33;;
39098;SDS011;24844;52.380;7.018;2022-09-01T02:55:33;2.03;;;1.20;;
39098;SDS011;24844;52.380;7.018;2022-09-01T02:58:05;7.93;;;1.25;;
39098;SDS011;24844;52.380;7.018;2022-09-01T03:00:40;2.50;;;1.33;;
39098;SDS011;24844;52.380;7.018;2022-09-01T03:03:07;3.88;;;1.27;;
39098;SDS011;24844;52.380;7.018;2022-09-01T03:05:33;2.40;;;1.10;;
39098;SDS011;24844;52.380;7.018;2022-09-01T03:08:04;3.45;;;1.48;;
39098;SDS011;24844;52.380;7.018;2022-09-01T03:10:35;1.75;;;1.17;;
39098;SDS011;24844;52.380;7.018;2022-09-01T03:13:08;1.85;;;1.10;;
39098;SDS011;24844;52.380;7.018;2022-09-01T03:15:36;3.83;;;1.23;;
39098;SDS011;24844;52.380;7.018;2022-09-01T03:18:02;3.03;;;1.45;;
39098;SDS011;24844;52.380;7.018;2022-09-01T03:20:30;1.60;;;1.10;;
39098;SDS011;24844;52.380;7.018;2022-09-01T03:22:58;4.57;;;1.50;;
39098;SDS011;24844;52.380;7.018;2022-09-01T03:25:25;5.57;;;1.40;;
39098;SDS011;24844;52.380;7.018;2022-09-01T03:27:53;2.55;;;1.63;;
39098;SDS011;24844;52.380;7.018;2022-09-01T03:30:19;2.25;;;1.25;;
39098;SDS011;24844;52.380;7.018;2022-09-01T03:32:45;2.05;;;1.40;;
39098;SDS011;24844;52.380;7.018;2022-09-01T03:35:12;3.20;;;1.40;;
39098;SDS011;24844;52.380;7.018;2022-09-01T03:37:38;3.20;;;1.42;;
39098;SDS011;24844;52.380;7.018;2022-09-01T03:40:04;4.28;;;1.40;;
39098;SDS011;24844;52.380;7.018;2022-09-01T03:42:32;1.85;;;1.25;;
39098;SDS011;24844;52.380;7.018;2022-09-01T03:44:59;3.00;;;1.70;;
39098;SDS011;24844;52.380;7.018;2022-09-01T03:47:31;2.22;;;1.50;;
39098;SDS011;24844;52.380;7.018;2022-09-01T03:49:57;4.68;;;1.75;;
39098;SDS011;24844;52.380;7.018;2022-09-01T03:52:23;2.05;;;1.55;;
39098;SDS011;24844;52.380;7.018;2022-09-01T03:54:53;2.83;;;1.35;;
39098;SDS011;24844;52.380;7.018;2022-09-01T03:57:19;3.65;;;1.50;;
39098;SDS011;24844;52.380;7.018;2022-09-01T03:59:47;1.40;;;1.30;;
39098;SDS011;24844;52.380;7.018;2022-09-01T04:02:13;4.03;;;1.70;;
39098;SDS011;24844;52.380;7.018;2022-09-01T04:04:38;2.45;;;1.65;;
39098;SDS011;24844;52.380;7.018;2022-09-01T04:07:04;1.73;;;1.25;;
39098;SDS011;24844;52.380;7.018;2022-09-01T04:09:31;2.97;;;1.63;;
39098;SDS011;24844;52.380;7.018;2022-09-01T04:11:59;4.93;;;1.60;;
39098;SDS011;24844;52.380;7.018;2022-09-01T04:14:24;1.83;;;1.60;;
39098;SDS011;24844;52.380;7.018;2022-09-01T04:16:51;2.47;;;1.45;;
39098;SDS011;24844;52.380;7.018;2022-09-01T04:19:35;1.98;;;1.67;;
39098;SDS011;24844;52.380;7.018;2022-09-01T04:22:03;2.10;;;1.60;;
39098;SDS011;24844;52.380;7.018;2022-09-01T04:24:30;2.75;;;1.52;;
39098;SDS011;24844;52.380;7.018;2022-09-01T04:26:58;3.45;;;1.77;;
39098;SDS011;24844;52.380;7.018;2022-09-01T04:29:26;2.40;;;1.65;;
39098;SDS011;24844;52.380;7.018;2022-09-01T04:31:54;1.73;;;1.60;;
39098;SDS011;24844;52.380;7.018;2022-09-01T04:34:20;5.22;;;2.15;;
39098;SDS011;24844;52.380;7.018;2022-09-01T04:36:46;2.97;;;1.98;;
39098;SDS011;24844;52.380;7.018;2022-09-01T04:39:12;2.92;;;1.70;;
39098;SDS011;24844;52.380;7.018;2022-09-01T04:41:42;2.80;;;1.90;;
39098;SDS011;24844;52.380;7.018;2022-09-01T04:44:13;3.60;;;1.73;;
39098;SDS011;24844;52.380;7.018;2022-09-01T04:46:40;2.17;;;1.80;;
39098;SDS011;24844;52.380;7.018;2022-09-01T04:49:10;2.63;;;1.67;;
39098;SDS011;24844;52.380;7.018;2022-09-01T04:51:40;3.92;;;2.13;;
39098;SDS011;24844;52.380;7.018;2022-09-01T04:54:07;1.77;;;1.67;;
39098;SDS011;24844;52.380;7.018;2022-09-01T04:56:36;2.38;;;2.08;;
39098;SDS011;24844;52.380;7.018;2022-09-01T04:59:03;2.92;;;1.98;;
39098;SDS011;24844;52.380;7.018;2022-09-01T05:01:31;2.65;;;2.22;;
39098;SDS011;24844;52.380;7.018;2022-09-01T05:04:07;3.17;;;2.28;;
39098;SDS011;24844;52.380;7.018;2022-09-01T05:06:42;3.55;;;2.13;;
39098;SDS011;24844;52.380;7.018;2022-09-01T05:09:10;3.65;;;1.88;;
39098;SDS011;24844;52.380;7.018;2022-09-01T05:11:36;2.03;;;1.50;;
39098;SDS011;24844;52.380;7.018;2022-09-01T05:14:04;6.63;;;1.80;;
39098;SDS011;24844;52.380;7.018;2022-09-01T05:16:31;3.40;;;1.83;;
39098;SDS011;24844;52.380;7.018;2022-09-01T05:18:57;3.13;;;1.95;;
39098;SDS011;24844;52.380;7.018;2022-09-01T05:21:25;7.13;;;2.00;;
39098;SDS011;24844;52.380;7.018;2022-09-01T05:23:53;3.38;;;2.00;;
39098;SDS011;24844;52.380;7.018;2022-09-01T05:26:23;1.95;;;1.50;;
39098;SDS011;24844;52.380;7.018;2022-09-01T05:28:51;2.47;;;2.10;;
39098;SDS011;24844;52.380;7.018;2022-09-01T05:31:19;2.22;;;2.03;;
39098;SDS011;24844;52.380;7.018;2022-09-01T05:33:46;4.00;;;1.77;;
39098;SDS011;24844;52.380;7.018;2022-09-01T05:36:18;3.67;;;2.10;;
39098;SDS011;24844;52.380;7.018;2022-09-01T05:38:46;3.05;;;2.05;;
39098;SDS011;24844;52.380;7.018;2022-09-01T05:41:14;5.13;;;2.03;;
39098;SDS011;24844;52.380;7.018;2022-09-01T05:43:42;2.85;;;1.63;;
39098;SDS011;24844;52.380;7.018;2022-09-01T05:46:12;3.13;;;2.13;;
39098;SDS011;24844;52.380;7.018;2022-09-01T05:51:08;3.72;;;1.73;;
39098;SDS011;24844;52.380;7.018;2022-09-01T05:53:38;4.93;;;1.35;;
39098;SDS011;24844;52.380;7.018;2022-09-01T05:56:05;2.35;;;1.88;;
39098;SDS011;24844;52.380;7.018;2022-09-01T05:58:33;5.97;;;2.17;;
39098;SDS011;24844;52.380;7.018;2022-09-01T06:00:59;3.25;;;1.80;;
39098;SDS011;24844;52.380;7.018;2022-09-01T06:03:26;4.30;;;2.03;;
39098;SDS011;24844;52.380;7.018;2022-09-01T06:05:52;4.90;;;1.85;;
39098;SDS011;24844;52.380;7.018;2022-09-01T06:08:21;3.22;;;1.80;;
39098;SDS011;24844;52.380;7.018;2022-09-01T06:10:48;1.88;;;1.63;;
39098;SDS011;24844;52.380;7.018;2022-09-01T06:13:16;3.05;;;1.90;;
39098;SDS011;24844;52.380;7.018;2022-09-01T06:15:45;2.78;;;2.00;;
39098;SDS011;24844;52.380;7.018;2022-09-01T06:18:18;6.72;;;2.35;;
39098;SDS011;24844;52.380;7.018;2022-09-01T06:20:46;2.08;;;1.88;;
39098;SDS011;24844;52.380;7.018;2022-09-01T06:23:13;2.42;;;2.00;;
39098;SDS011;24844;52.380;7.018;2022-09-01T06:25:42;2.28;;;1.98;;
39098;SDS011;24844;52.380;7.018;2022-09-01T06:28:14;2.85;;;2.10;;
39098;SDS011;24844;52.380;7.018;2022-09-01T06:30:41;3.92;;;1.83;;
39098;SDS011;24844;52.380;7.018;2022-09-01T06:33:10;3.60;;;2.03;;
39098;SDS011;24844;52.380;7.018;2022-09-01T06:35:38;9.70;;;2.28;;
39098;SDS011;24844;52.380;7.018;2022-09-01T06:38:06;5.35;;;2.17;;
39098;SDS011;24844;52.380;7.018;2022-09-01T06:40:34;3.00;;;1.92;;
39098;SDS011;24844;52.380;7.018;2022-09-01T06:43:00;2.97;;;2.15;;
39098;SDS011;24844;52.380;7.018;2022-09-01T06:45:32;3.67;;;2.25;;
39098;SDS011;24844;52.380;7.018;2022-09-01T06:47:58;8.52;;;2.35;;
39098;SDS011;24844;52.380;7.018;2022-09-01T06:50:25;2.40;;;2.03;;
39098;SDS011;24844;52.380;7.018;2022-09-01T06:52:51;2.67;;;2.10;;
39098;SDS011;24844;52.380;7.018;2022-09-01T06:55:25;6.43;;;2.20;;
39098;SDS011;24844;52.380;7.018;2022-09-01T06:57:57;1.92;;;1.73;;
39098;SDS011;24844;52.380;7.018;2022-09-01T07:00:23;4.30;;;2.10;;
39098;SDS011;24844;52.380;7.018;2022-09-01T07:02:54;4.15;;;1.95;;
39098;SDS011;24844;52.380;7.018;2022-09-01T07:05:21;2.33;;;1.77;;
39098;SDS011;24844;52.380;7.018;2022-09-01T07:07:48;2.92;;;2.22;;
39098;SDS011;24844;52.380;7.018;2022-09-01T07:10:16;4.50;;;1.73;;
39098;SDS011;24844;52.380;7.018;2022-09-01T07:12:49;4.50;;;1.83;;
39098;SDS011;24844;52.380;7.018;2022-09-01T07:15:17;2.08;;;1.30;;
39098;SDS011;24844;52.380;7.018;2022-09-01T07:18:02;2.38;;;1.90;;
39098;SDS011;24844;52.380;7.018;2022-09-01T07:20:27;1.63;;;1.50;;
39098;SDS011;24844;52.380;7.018;2022-09-01T07:22:54;4.05;;;1.60;;
39098;SDS011;24844;52.380;7.018;2022-09-01T07:25:21;1.58;;;1.35;;
39098;SDS011;24844;52.380;7.018;2022-09-01T07:27:46;2.95;;;1.73;;
39098;SDS011;24844;52.380;7.018;2022-09-01T07:30:15;2.45;;;1.55;;
39098;SDS011;24844;52.380;7.018;2022-09-01T07:32:43;3.70;;;1.70;;
39098;SDS011;24844;52.380;7.018;2022-09-01T07:35:10;3.45;;;1.70;;
39098;SDS011;24844;52.380;7.018;2022-09-01T07:37:37;3.28;;;1.33;;
39098;SDS011;24844;52.380;7.018;2022-09-01T07:40:04;2.90;;;1.50;;
39098;SDS011;24844;52.380;7.018;2022-09-01T07:42:31;2.58;;;1.40;;
39098;SDS011;24844;52.380;7.018;2022-09-01T07:44:57;4.65;;;1.23;;
39098;SDS011;24844;52.380;7.018;2022-09-01T07:47:23;3.05;;;1.00;;
39098;SDS011;24844;52.380;7.018;2022-09-01T07:49:49;4.00;;;1.50;;
39098;SDS011;24844;52.380;7.018;2022-09-01T07:52:15;1.50;;;0.93;;
39098;SDS011;24844;52.380;7.018;2022-09-01T07:54:41;4.55;;;1.30;;
39098;SDS011;24844;52.380;7.018;2022-09-01T07:57:07;2.63;;;1.13;;
39098;SDS011;24844;52.380;7.018;2022-09-01T07:59:33;3.60;;;1.20;;
39098;SDS011;24844;52.380;7.018;2022-09-01T08:01:59;2.83;;;0.70;;
39098;SDS011;24844;52.380;7.018;2022-09-01T08:04:29;2.92;;;0.77;;
39098;SDS011;24844;52.380;7.018;2022-09-01T08:06:55;3.90;;;0.60;;
39098;SDS011;24844;52.380;7.018;2022-09-01T08:09:21;3.00;;;0.80;;
39098;SDS011;24844;52.380;7.018;2022-09-01T08:11:47;4.10;;;0.60;;
39098;SDS011;24844;52.380;7.018;2022-09-01T08:14:13;4.10;;;0.70;;
39098;SDS011;24844;52.380;7.018;2022-09-01T08:16:39;2.75;;;0.70;;
39098;SDS011;24844;52.380;7.018;2022-09-01T08:19:04;3.28;;;0.70;;
39098;SDS011;24844;52.380;7.018;2022-09-01T08:21:30;2.75;;;1.08;;
39098;SDS011;24844;52.380;7.018;2022-09-01T08:23:56;1.30;;;0.70;;
39098;SDS011;24844;52.380;7.018;2022-09-01T08:26:23;3.10;;;0.60;;
39098;SDS011;24844;52.380;7.018;2022-09-01T08:28:50;1.05;;;0.52;;
39098;SDS011;24844;52.380;7.018;2022-09-01T08:31:17;3.17;;;0.80;;
39098;SDS011;24844;52.380;7.018;2022-09-01T08:33:44;1.38;;;0.65;;
39098;SDS011;24844;52.380;7.018;2022-09-01T08:36:12;1.75;;;0.50;;
39098;SDS011;24844;52.380;7.018;2022-09-01T08:38:38;2.30;;;0.80;;
39098;SDS011;24844;52.380;7.018;2022-09-01T08:41:05;3.85;;;0.60;;
39098;SDS011;24844;52.380;7.018;2022-09-01T08:46:40;2.53;;;0.80;;
39098;SDS011;24844;52.380;7.018;2022-09-01T08:51:47;3.20;;;0.70;;
39098;SDS011;24844;52.380;7.018;2022-09-01T08:54:25;3.53;;;0.50;;
39098;SDS011;24844;52.380;7.018;2022-09-01T08:57:02;1.80;;;0.38;;
39098;SDS011;24844;52.380;7.018;2022-09-01T08:59:32;3.15;;;0.40;;
39098;SDS011;24844;52.380;7.018;2022-09-01T09:01:59;3.42;;;0.75;;
39098;SDS011;24844;52.380;7.018;2022-09-01T09:07:41;1.55;;;0.60;;
39098;SDS011;24844;52.380;7.018;2022-09-01T09:10:23;0.80;;;0.73;;
39098;SDS011;24844;52.380;7.018;2022-09-01T09:13:05;2.10;;;0.60;;
39098;SDS011;24844;52.380;7.018;2022-09-01T09:15:43;0.95;;;0.70;;
39098;SDS011;24844;52.380;7.018;2022-09-01T09:18:30;1.08;;;0.55;;
39098;SDS011;24844;52.380;7.018;2022-09-01T09:23:40;3.17;;;0.60;;
39098;SDS011;24844;52.380;7.018;2022-09-01T09:26:10;0.75;;;0.60;;
39098;SDS011;24844;52.380;7.018;2022-09-01T09:28:35;1.40;;;0.80;;
39098;SDS011;24844;52.380;7.018;2022-09-01T09:33:50;2.47;;;0.90;;
39098;SDS011;24844;52.380;7.018;2022-09-01T09:36:36;1.05;;;0.55;;
39098;SDS011;24844;52.380;7.018;2022-09-01T09:39:07;1.02;;;0.70;;
39098;SDS011;24844;52.380;7.018;2022-09-01T09:41:41;0.70;;;0.50;;
39098;SDS011;24844;52.380;7.018;2022-09-01T09:44:28;1.98;;;0.70;;
39098;SDS011;24844;52.380;7.018;2022-09-01T09:46:56;2.85;;;0.70;;
39098;SDS011;24844;52.380;7.018;2022-09-01T09:49:27;1.77;;;0.68;;
39098;SDS011;24844;52.380;7.018;2022-09-01T09:51:55;1.42;;;0.57;;
39098;SDS011;24844;52.380;7.018;2022-09-01T09:54:34;1.00;;;0.68;;
39098;SDS011;24844;52.380;7.018;2022-09-01T09:59:55;1.55;;;0.80;;
39098;SDS011;24844;52.380;7.018;2022-09-01T10:04:53;1.02;;;0.77;;
39098;SDS011;24844;52.380;7.018;2022-09-01T10:09:51;2.40;;;0.65;;
39098;SDS011;24844;52.380;7.018;2022-09-01T10:12:19;0.98;;;0.60;;
39098;SDS011;24844;52.380;7.018;2022-09-01T10:14:49;1.00;;;0.73;;
39098;SDS011;24844;52.380;7.018;2022-09-01T10:17:20;4.18;;;0.60;;
39098;SDS011;24844;52.380;7.018;2022-09-01T10:19:53;1.20;;;0.50;;
39098;SDS011;24844;52.380;7.018;2022-09-01T10:22:22;1.08;;;0.60;;
39098;SDS011;24844;52.380;7.018;2022-09-01T10:24:49;2.58;;;0.70;;
39098;SDS011;24844;52.380;7.018;2022-09-01T10:27:18;3.05;;;0.90;;
39098;SDS011;24844;52.380;7.018;2022-09-01T10:29:52;1.75;;;0.88;;
39098;SDS011;24844;52.380;7.018;2022-09-01T10:32:30;0.80;;;0.70;;
39098;SDS011;24844;52.380;7.018;2022-09-01T10:35:33;2.28;;;0.88;;
39098;SDS011;24844;52.380;7.018;2022-09-01T10:38:05;3.65;;;0.80;;
39098;SDS011;24844;52.380;7.018;2022-09-01T10:40:34;3.60;;;0.80;;
39098;SDS011;24844;52.380;7.018;2022-09-01T10:45:49;0.85;;;0.70;;
39098;SDS011;24844;52.380;7.018;2022-09-01T10:50:51;2.90;;;0.73;;
39098;SDS011;24844;52.380;7.018;2022-09-01T11:04:05;3.47;;;0.88;;
39098;SDS011;24844;52.380;7.018;2022-09-01T11:06:43;1.80;;;0.57;;
39098;SDS011;24844;52.380;7.018;2022-09-01T11:14:34;7.35;;;0.80;;
39098;SDS011;24844;52.380;7.018;2022-09-01T11:17:22;0.85;;;0.30;;
39098;SDS011;24844;52.380;7.018;2022-09-01T11:19:57;1.25;;;0.40;;
39098;SDS011;24844;52.380;7.018;2022-09-01T11:27:57;0.80;;;0.50;;
39098;SDS011;24844;52.380;7.018;2022-09-01T11:36:19;2.33;;;0.60;;
39098;SDS011;24844;52.380;7.018;2022-09-01T11:38:52;2.97;;;0.63;;
39098;SDS011;24844;52.380;7.018;2022-09-01T11:41:27;1.42;;;0.50;;
39098;SDS011;24844;52.380;7.018;2022-09-01T11:43:58;3.78;;;0.60;;
39098;SDS011;24844;52.380;7.018;2022-09-01T11:46:27;1.48;;;0.75;;
39098;SDS011;24844;52.380;7.018;2022-09-01T11:49:00;1.85;;;0.73;;
39098;SDS011;24844;52.380;7.018;2022-09-01T11:52:04;2.33;;;0.50;;
39098;SDS011;24844;52.380;7.018;2022-09-01T11:54:23;1.05;;;0.40;;
39098;SDS011;24844;52.380;7.018;2022-09-01T11:56:49;0.73;;;0.40;;
39098;SDS011;24844;52.380;7.018;2022-09-01T11:59:32;1.85;;;0.60;;
39098;SDS011;24844;52.380;7.018;2022-09-01T12:01:59;1.02;;;0.40;;
39098;SDS011;24844;52.380;7.018;2022-09-01T12:04:30;1.40;;;0.55;;
39098;SDS011;24844;52.380;7.018;2022-09-01T12:07:04;2.50;;;0.90;;
39098;SDS011;24844;52.380;7.018;2022-09-01T12:09:35;1.50;;;0.68;;
39098;SDS011;24844;52.380;7.018;2022-09-01T12:12:04;3.53;;;0.80;;
39098;SDS011;24844;52.380;7.018;2022-09-01T12:16:59;2.97;;;0.63;;
39098;SDS011;24844;52.380;7.018;2022-09-01T12:19:31;5.38;;;0.60;;
39098;SDS011;24844;52.380;7.018;2022-09-01T12:22:00;2.35;;;0.70;;
39098;SDS011;24844;52.380;7.018;2022-09-01T12:24:29;1.38;;;0.60;;
39098;SDS011;24844;52.380;7.018;2022-09-01T12:26:59;2.80;;;0.60;;
39098;SDS011;24844;52.380;7.018;2022-09-01T12:29:26;0.80;;;0.43;;
39098;SDS011;24844;52.380;7.018;2022-09-01T12:31:52;0.85;;;0.60;;
39098;SDS011;24844;52.380;7.018;2022-09-01T12:34:25;1.85;;;0.63;;
39098;SDS011;24844;52.380;7.018;2022-09-01T12:37:01;2.83;;;0.57;;
39098;SDS011;24844;52.380;7.018;2022-09-01T12:39:31;1.52;;;0.43;;
39098;SDS011;24844;52.380;7.018;2022-09-01T12:42:02;1.77;;;0.60;;
39098;SDS011;24844;52.380;7.018;2022-09-01T12:47:03;1.42;;;0.50;;
39098;SDS011;24844;52.380;7.018;2022-09-01T12:52:20;3.40;;;0.60;;
39098;SDS011;24844;52.380;7.018;2022-09-01T12:54:50;2.20;;;0.40;;
39098;SDS011;24844;52.380;7.018;2022-09-01T12:57:34;2.33;;;0.60;;
39098;SDS011;24844;52.380;7.018;2022-09-01T13:02:49;2.80;;;0.50;;
39098;SDS011;24844;52.380;7.018;2022-09-01T13:05:29;1.88;;;0.60;;
39098;SDS011;24844;52.380;7.018;2022-09-01T13:08:01;2.13;;;0.88;;
39098;SDS011;24844;52.380;7.018;2022-09-01T13:10:30;3.15;;;0.47;;
39098;SDS011;24844;52.380;7.018;2022-09-01T13:12:58;1.33;;;0.57;;
39098;SDS011;24844;52.380;7.018;2022-09-01T13:15:26;1.60;;;0.43;;
39098;SDS011;24844;52.380;7.018;2022-09-01T13:17:52;1.02;;;0.40;;
39098;SDS011;24844;52.380;7.018;2022-09-01T13:20:17;4.53;;;0.40;;
39098;SDS011;24844;52.380;7.018;2022-09-01T13:22:43;4.45;;;0.60;;
39098;SDS011;24844;52.380;7.018;2022-09-01T13:25:10;3.22;;;0.50;;
39098;SDS011;24844;52.380;7.018;2022-09-01T13:27:37;1.88;;;0.45;;
39098;SDS011;24844;52.380;7.018;2022-09-01T13:30:06;2.00;;;0.50;;
39098;SDS011;24844;52.380;7.018;2022-09-01T13:32:32;2.05;;;0.68;;
39098;SDS011;24844;52.380;7.018;2022-09-01T13:34:58;0.98;;;0.50;;
39098;SDS011;24844;52.380;7.018;2022-09-01T13:37:23;2.03;;;0.43;;
39098;SDS011;24844;52.380;7.018;2022-09-01T13:39:49;2.47;;;0.50;;
39098;SDS011;24844;52.380;7.018;2022-09-01T13:42:15;3.05;;;0.50;;
39098;SDS011;24844;52.380;7.018;2022-09-01T13:44:41;0.75;;;0.50;;
39098;SDS011;24844;52.380;7.018;2022-09-01T13:47:07;2.03;;;0.50;;
39098;SDS011;24844;52.380;7.018;2022-09-01T13:49:32;5.47;;;0.50;;
39098;SDS011;24844;52.380;7.018;2022-09-01T13:51:58;0.82;;;0.50;;
39098;SDS011;24844;52.380;7.018;2022-09-01T13:54:23;1.48;;;0.50;;
39098;SDS011;24844;52.380;7.018;2022-09-01T13:56:49;4.85;;;0.80;;
39098;SDS011;24844;52.380;7.018;2022-09-01T13:59:15;1.33;;;0.55;;
39098;SDS011;24844;52.380;7.018;2022-09-01T14:01:40;1.60;;;0.60;;
39098;SDS011;24844;52.380;7.018;2022-09-01T14:04:06;2.22;;;0.40;;
39098;SDS011;24844;52.380;7.018;2022-09-01T14:06:37;1.58;;;0.40;;
39098;SDS011;24844;52.380;7.018;2022-09-01T14:09:04;1.75;;;0.40;;
39098;SDS011;24844;52.380;7.018;2022-09-01T14:11:29;3.42;;;0.50;;
39098;SDS011;24844;52.380;7.018;2022-09-01T14:13:56;0.82;;;0.40;;
39098;SDS011;24844;52.380;7.018;2022-09-01T14:16:21;1.27;;;0.40;;
39098;SDS011;24844;52.380;7.018;2022-09-01T14:18:47;0.73;;;0.40;;
39098;SDS011;24844;52.380;7.018;2022-09-01T14:21:13;3.15;;;0.38;;
39098;SDS011;24844;52.380;7.018;2022-09-01T14:23:40;2.28;;;0.43;;
39098;SDS011;24844;52.380;7.018;2022-09-01T14:26:08;4.78;;;0.40;;
39098;SDS011;24844;52.380;7.018;2022-09-01T14:28:35;1.58;;;0.40;;
39098;SDS011;24844;52.380;7.018;2022-09-01T14:31:06;0.73;;;0.57;;
39098;SDS011;24844;52.380;7.018;2022-09-01T14:33:32;2.75;;;0.60;;
39098;SDS011;24844;52.380;7.018;2022-09-01T14:35:59;1.20;;;0.40;;
39098;SDS011;24844;52.380;7.018;2022-09-01T14:38:25;2.42;;;0.57;;
39098;SDS011;24844;52.380;7.018;2022-09-01T14:40:50;0.95;;;0.50;;
39098;SDS011;24844;52.380;7.018;2022-09-01T14:43:16;2.25;;;0.80;;
39098;SDS011;24844;52.380;7.018;2022-09-01T14:45:42;2.67;;;0.55;;
39098;SDS011;24844;52.380;7.018;2022-09-01T14:48:11;1.15;;;0.60;;
39098;SDS011;24844;52.380;7.018;2022-09-01T14:50:39;1.67;;;0.60;;
39098;SDS011;24844;52.380;7.018;2022-09-01T14:53:07;2.03;;;0.70;;
39098;SDS011;24844;52.380;7.018;2022-09-01T14:55:33;3.03;;;0.55;;
39098;SDS011;24844;52.380;7.018;2022-09-01T14:57:58;0.90;;;0.40;;
39098;SDS011;24844;52.380;7.018;2022-09-01T15:00:25;3.05;;;0.60;;
39098;SDS011;24844;52.380;7.018;2022-09-01T15:02:51;1.65;;;0.60;;
39098;SDS011;24844;52.380;7.018;2022-09-01T15:05:18;3.38;;;0.68;;
39098;SDS011;24844;52.380;7.018;2022-09-01T15:07:45;2.05;;;0.50;;
39098;SDS011;24844;52.380;7.018;2022-09-01T15:10:12;4.93;;;0.60;;
39098;SDS011;24844;52.380;7.018;2022-09-01T15:15:05;0.60;;;0.40;;
39098;SDS011;24844;52.380;7.018;2022-09-01T15:17:32;1.98;;;0.60;;
39098;SDS011;24844;52.380;7.018;2022-09-01T15:19:59;3.85;;;0.70;;
39098;SDS011;24844;52.380;7.018;2022-09-01T15:22:44;1.40;;;0.60;;
39098;SDS011;24844;52.380;7.018;2022-09-01T15:25:11;1.90;;;0.57;;
39098;SDS011;24844;52.380;7.018;2022-09-01T15:27:37;3.50;;;0.50;;
39098;SDS011;24844;52.380;7.018;2022-09-01T15:30:03;2.58;;;0.50;;
39098;SDS011;24844;52.380;7.018;2022-09-01T15:32:40;0.85;;;0.50;;
39098;SDS011;24844;52.380;7.018;2022-09-01T15:35:11;3.30;;;0.60;;
39098;SDS011;24844;52.380;7.018;2022-09-01T15:37:37;3.85;;;0.65;;
39098;SDS011;24844;52.380;7.018;2022-09-01T15:40:04;2.65;;;0.60;;
39098;SDS011;24844;52.380;7.018;2022-09-01T15:42:31;1.93;;;0.50;;
39098;SDS011;24844;52.380;7.018;2022-09-01T15:44:59;0.60;;;0.35;;
39098;SDS011;24844;52.380;7.018;2022-09-01T15:47:26;4.05;;;0.55;;
39098;SDS011;24844;52.380;7.018;2022-09-01T15:49:53;3.35;;;0.52;;
39098;SDS011;24844;52.380;7.018;2022-09-01T15:52:18;2.03;;;0.47;;
39098;SDS011;24844;52.380;7.018;2022-09-01T15:54:45;2.92;;;0.43;;
39098;SDS011;24844;52.380;7.018;2022-09-01T15:57:10;2.13;;;0.30;;
39098;SDS011;24844;52.380;7.018;2022-09-01T15:59:36;1.17;;;0.40;;
39098;SDS011;24844;52.380;7.018;2022-09-01T16:02:04;1.73;;;0.60;;
39098;SDS011;24844;52.380;7.018;2022-09-01T16:04:31;1.88;;;0.60;;
39098;SDS011;24844;52.380;7.018;2022-09-01T16:06:56;0.85;;;0.40;;
39098;SDS011;24844;52.380;7.018;2022-09-01T16:09:22;0.75;;;0.35;;
39098;SDS011;24844;52.380;7.018;2022-09-01T16:11:50;4.55;;;0.65;;
39098;SDS011;24844;52.380;7.018;2022-09-01T16:14:16;0.85;;;0.40;;
39098;SDS011;24844;52.380;7.018;2022-09-01T16:17:04;3.25;;;0.50;;